Time;durP1;ratioP1;P1;durP2;ratioP2;P2;SDS_P1;SDS_P2;PMS_P1;PMS_P2;Temp;Humidity;BMP_temperature;BMP_pressure;BME280_temperature;BME280_humidity;BME280_pressure;Samples;Min_cycle;Max_cycle;Signal;HPM_P1;HPM_P2
2023/07/29 00:09:26;;;;;;;17.00;13.20;;;12.60;99.90;;;;;;25594515;23;20009;-53
2023/07/29 00:19:28;;;;;;;22.25;13.98;;;12.50;99.90;;;;;;25592954;23;20005;-52
2023/07/29 00:29:30;;;;;;;20.38;14.73;;;12.50;99.90;;;;;;25592118;23;20032;-55
2023/07/29 00:39:32;;;;;;;17.38;13.23;;;12.60;99.90;;;;;;25591794;23;20013;-51
2023/07/29 00:49:34;;;;;;;16.58;12.80;;;12.70;99.90;;;;;;25591288;23;20064;-48
2023/07/29 00:59:36;;;;;;;18.88;14.13;;;12.80;99.90;;;;;;25590840;23;20441;-57
2023/07/29 01:09:47;;;;;;;23.10;16.63;;;12.50;99.90;;;;;;25564125;23;20063;-49
2023/07/29 01:20:09;;;;;;;21.17;16.55;;;12.40;99.90;;;;;;25631679;23;20128;-47
2023/07/29 01:30:11;;;;;;;21.45;15.82;;;12.40;99.90;;;;;;25626986;23;20084;-51
2023/07/29 01:40:14;;;;;;;18.73;14.43;;;12.40;99.90;;;;;;25589261;23;20341;-53
2023/07/29 01:50:15;;;;;;;21.30;15.20;;;12.40;99.90;;;;;;25562721;23;20491;-46
2023/07/29 02:00:19;;;;;;;20.33;15.68;;;12.30;99.90;;;;;;25588864;23;20005;-55
2023/07/29 02:10:21;;;;;;;22.80;17.45;;;12.20;99.90;;;;;;25562471;23;20009;-52
2023/07/29 02:20:22;;;;;;;24.58;16.63;;;12.30;99.90;;;;;;25562718;23;20040;-55
2023/07/29 02:30:26;;;;;;;24.95;18.67;;;12.20;99.90;;;;;;25562088;23;20032;-50
2023/07/29 02:40:29;;;;;;;23.27;17.35;;;12.20;99.90;;;;;;25562023;23;20020;-49
2023/07/29 02:50:31;;;;;;;27.10;16.80;;;12.10;99.90;;;;;;25562077;23;20040;-53
2023/07/29 03:00:33;;;;;;;24.08;17.15;;;12.10;99.90;;;;;;25594320;23;20032;-50
2023/07/29 03:10:36;;;;;;;19.95;14.88;;;12.10;99.90;;;;;;25593868;23;20467;-48
2023/07/29 03:20:38;;;;;;;19.50;14.88;;;12.10;99.90;;;;;;25594502;23;20001;-45
2023/07/29 03:30:39;;;;;;;18.17;13.68;;;12.10;99.90;;;;;;25594413;23;20013;-47
2023/07/29 03:40:43;;;;;;;17.80;13.35;;;12.30;99.90;;;;;;25567762;23;20039;-46
2023/07/29 03:50:45;;;;;;;20.70;13.75;;;12.30;99.90;;;;;;25591844;23;20380;-48
2023/07/29 04:00:47;;;;;;;20.42;14.43;;;12.50;99.90;;;;;;25591692;23;20005;-50
2023/07/29 04:10:49;;;;;;;21.85;15.88;;;12.40;99.90;;;;;;25566540;23;20016;-49
2023/07/29 04:20:51;;;;;;;19.38;14.38;;;12.30;99.90;;;;;;25592634;23;20005;-46
2023/07/29 04:30:53;;;;;;;17.95;12.95;;;12.70;99.90;;;;;;25565691;23;20013;-50
2023/07/29 04:40:55;;;;;;;21.77;13.90;;;12.60;99.90;;;;;;25591892;23;20016;-48
2023/07/29 04:50:57;;;;;;;20.90;13.57;;;12.70;99.90;;;;;;25591386;23;20013;-49
2023/07/29 05:00:59;;;;;;;18.00;12.68;;;12.80;99.90;;;;;;25590872;23;20005;-51
2023/07/29 05:11:02;;;;;;;20.27;13.98;;;13.00;99.90;;;;;;25564290;23;20005;-45
2023/07/29 05:21:04;;;;;;;17.75;12.95;;;13.10;99.90;;;;;;25590007;23;20063;-54
2023/07/29 05:31:05;;;;;;;18.73;13.93;;;13.10;99.90;;;;;;25563919;23;20384;-47
2023/07/29 05:41:08;;;;;;;17.02;12.57;;;13.20;99.90;;;;;;25563037;23;20040;-46
2023/07/29 05:51:10;;;;;;;16.77;12.95;;;13.30;99.90;;;;;;25589056;23;20009;-52
2023/07/29 06:01:12;;;;;;;16.67;12.18;;;13.40;99.90;;;;;;25562958;23;20005;-52
2023/07/29 06:11:14;;;;;;;13.85;10.57;;;13.60;99.90;;;;;;25562574;23;20013;-46
2023/07/29 06:21:17;;;;;;;13.75;9.77;;;13.80;99.90;;;;;;25588813;23;20016;-45
2023/07/29 06:31:20;;;;;;;9.10;5.10;;;14.20;99.90;;;;;;25565736;23;20008;-54
2023/07/29 06:41:22;;;;;;;6.45;4.50;;;17.10;99.90;;;;;;25596320;23;20009;-57
2023/07/29 06:51:25;;;;;;;6.18;4.65;;;21.30;99.90;;;;;;25595460;23;20052;-57
2023/07/29 07:01:27;;;;;;;6.25;4.07;;;22.90;99.90;;;;;;25595639;23;20067;-50
2023/07/29 07:11:32;;;;;;;6.43;4.03;;;24.00;99.90;;;;;;25595054;23;20005;-59
2023/07/29 07:21:34;;;;;;;6.80;3.80;;;25.40;99.90;;;;;;25594464;23;20032;-51
2023/07/29 07:31:36;;;;;;;7.40;4.45;;;26.00;99.20;;;;;;25594377;23;20336;-59
2023/07/29 07:41:38;;;;;;;6.22;4.57;;;24.80;99.90;;;;;;25593551;23;20453;-58
2023/07/29 07:51:43;;;;;;;5.43;4.68;;;25.00;99.90;;;;;;25593480;23;20039;-58
2023/07/29 08:01:46;;;;;;;7.85;5.35;;;25.80;99.10;;;;;;25593178;23;20376;-58
2023/07/29 08:11:49;;;;;;;7.88;4.43;;;25.70;99.30;;;;;;25592346;23;20009;-58
2023/07/29 08:21:50;;;;;;;5.05;4.43;;;25.90;98.90;;;;;;25592595;23;20375;-58
2023/07/29 08:31:52;;;;;;;6.47;4.75;;;25.40;99.00;;;;;;25593431;23;20005;-57
2023/07/29 08:42:11;;;;;;;9.90;4.95;;;24.50;99.90;;;;;;25591504;23;20067;-56
2023/07/29 08:52:15;;;;;;;11.45;5.80;;;24.30;99.90;;;;;;25631981;23;20318;-55
2023/07/29 09:02:18;;;;;;;6.30;5.68;;;23.80;99.90;;;;;;25590352;23;20055;-56
2023/07/29 09:12:20;;;;;;;7.22;5.70;;;23.50;99.90;;;;;;25590031;23;20044;-56
2023/07/29 09:22:21;;;;;;;8.23;5.88;;;23.10;99.90;;;;;;25589784;23;20005;-56
2023/07/29 09:32:25;;;;;;;8.05;6.30;;;22.80;99.90;;;;;;25589374;23;20170;-56
2023/07/29 09:42:27;;;;;;;7.25;5.63;;;23.30;99.90;;;;;;25589081;23;20067;-56
2023/07/29 09:52:29;;;;;;;5.78;5.18;;;23.00;99.90;;;;;;25588336;23;20116;-57
2023/07/29 10:02:31;;;;;;;7.25;6.35;;;23.40;99.90;;;;;;25588441;23;20452;-56
2023/07/29 10:12:34;;;;;;;7.68;5.78;;;23.20;99.90;;;;;;25588817;23;20032;-55
2023/07/29 10:22:37;;;;;;;9.57;6.68;;;24.70;99.90;;;;;;25588632;23;20023;-57
2023/07/29 10:32:46;;;;;;;11.20;8.23;;;25.10;99.90;;;;;;25587735;23;20036;-56
2023/07/29 10:43:01;;;;;;;11.02;8.70;;;24.30;99.90;;;;;;25588275;23;20274;-49
2023/07/29 10:53:03;;;;;;;11.40;10.30;;;23.70;99.90;;;;;;25628849;23;20013;-57
2023/07/29 11:03:07;;;;;;;12.65;10.90;;;23.50;99.90;;;;;;25538022;23;20013;-57
2023/07/29 11:13:11;;;;;;;13.45;9.40;;;22.80;99.90;;;;;;25587514;23;20375;-57
2023/07/29 11:23:13;;;;;;;9.13;7.72;;;23.10;99.90;;;;;;25594813;23;20005;-56
2023/07/29 11:33:19;;;;;;;9.77;8.23;;;23.10;99.90;;;;;;25593832;23;20055;-57
2023/07/29 11:43:22;;;;;;;9.52;6.65;;;23.30;99.90;;;;;;25635312;23;20384;-57
2023/07/29 11:53:28;;;;;;;8.57;7.13;;;24.80;99.90;;;;;;25593383;23;20440;-49
2023/07/29 12:03:31;;;;;;;10.03;5.37;;;24.80;99.90;;;;;;25592929;23;20063;-56
2023/07/29 12:13:36;;;;;;;8.52;5.35;;;25.10;99.90;;;;;;25592673;23;20388;-55
2023/07/29 12:23:38;;;;;;;7.22;5.35;;;25.50;99.90;;;;;;25566375;23;20328;-55
2023/07/29 12:33:42;;;;;;;5.70;5.10;;;24.80;99.90;;;;;;25591454;23;20009;-56
2023/07/29 12:43:44;;;;;;;9.00;6.32;;;24.30;99.90;;;;;;25590322;23;20116;-56
2023/07/29 12:53:47;;;;;;;8.45;6.07;;;24.00;99.90;;;;;;25590817;23;20009;-56
2023/07/29 13:03:49;;;;;;;8.63;6.53;;;23.70;99.90;;;;;;25590051;23;20051;-57
2023/07/29 13:13:51;;;;;;;7.68;5.50;;;23.20;99.90;;;;;;25563347;23;20024;-56
2023/07/29 13:23:53;;;;;;;5.28;3.90;;;23.80;99.90;;;;;;25590234;23;20332;-57
2023/07/29 13:33:55;;;;;;;8.10;5.07;;;26.30;99.90;;;;;;25589860;23;20350;-56
2023/07/29 13:43:57;;;;;;;6.68;5.18;;;25.50;99.90;;;;;;25561632;23;20005;-58
2023/07/29 13:53:59;;;;;;;6.50;4.97;;;25.60;99.90;;;;;;25589014;23;20013;-56
2023/07/29 14:04:01;;;;;;;8.48;5.55;;;25.20;99.90;;;;;;25588618;23;20008;-57
2023/07/29 14:14:03;;;;;;;6.75;5.20;;;23.80;99.90;;;;;;25588705;23;20008;-57
2023/07/29 14:24:06;;;;;;;7.97;5.13;;;24.80;99.90;;;;;;25588744;23;20013;-57
2023/07/29 14:34:08;;;;;;;6.88;4.90;;;25.10;99.90;;;;;;25587789;23;20012;-57
2023/07/29 14:44:10;;;;;;;10.07;5.18;;;24.70;99.90;;;;;;25587786;23;20001;-57
2023/07/29 14:54:13;;;;;;;8.20;5.72;;;25.60;99.90;;;;;;25567394;23;20005;-57
2023/07/29 15:04:16;;;;;;;7.20;6.07;;;26.70;99.90;;;;;;25595381;23;20009;-57
2023/07/29 15:14:18;;;;;;;6.47;5.72;;;26.50;99.60;;;;;;25568302;23;20005;-57
2023/07/29 15:24:20;;;;;;;5.75;4.80;;;26.20;99.90;;;;;;25595186;23;20005;-58
2023/07/29 15:34:25;;;;;;;6.53;5.05;;;26.40;99.90;;;;;;25593642;23;20005;-58
2023/07/29 15:44:27;;;;;;;7.07;5.75;;;24.80;99.90;;;;;;25567486;23;20005;-58
2023/07/29 15:54:30;;;;;;;11.35;7.65;;;22.70;99.90;;;;;;25593914;23;20349;-57
2023/07/29 16:04:32;;;;;;;9.05;8.15;;;21.40;99.90;;;;;;25592239;23;20116;-57
2023/07/29 16:14:34;;;;;;;11.98;9.05;;;20.70;99.90;;;;;;25591897;23;20066;-58
2023/07/29 16:24:37;;;;;;;12.05;9.38;;;20.20;99.90;;;;;;25591335;23;20005;-58
2023/07/29 16:34:39;;;;;;;13.52;9.52;;;20.00;99.90;;;;;;25591477;23;20013;-56
2023/07/29 16:44:41;;;;;;;14.10;9.13;;;19.70;99.90;;;;;;25591233;23;20306;-56
2023/07/29 16:54:43;;;;;;;12.43;10.30;;;19.40;99.90;;;;;;25540485;23;20040;-56
2023/07/29 17:04:45;;;;;;;15.55;10.70;;;19.10;99.90;;;;;;25590644;23;20009;-49
2023/07/29 17:14:48;;;;;;;13.93;11.38;;;18.90;99.90;;;;;;25589676;23;20016;-57
2023/07/29 17:24:50;;;;;;;15.50;11.93;;;18.60;99.90;;;;;;25589687;23;20005;-49
2023/07/29 17:34:52;;;;;;;9.82;7.55;;;18.20;99.90;;;;;;25590019;23;20028;-56
2023/07/29 17:44:54;;;;;;;6.57;5.40;;;18.10;99.90;;;;;;25563101;23;20005;-56
2023/07/29 17:54:55;;;;;;;9.60;5.80;;;18.30;99.90;;;;;;25589339;23;20391;-55
2023/07/29 18:04:58;;;;;;;7.72;5.82;;;18.30;99.90;;;;;;25561748;23;20009;-46
2023/07/29 18:15:00;;;;;;;8.23;5.78;;;18.60;99.90;;;;;;25588594;23;20028;-54
2023/07/29 18:25:02;;;;;;;7.88;6.03;;;18.60;99.90;;;;;;25591084;23;20017;-55
2023/07/29 18:35:04;;;;;;;12.77;6.18;;;18.60;99.90;;;;;;25594577;23;20013;-55
2023/07/29 18:45:06;;;;;;;7.53;5.65;;;18.40;99.90;;;;;;25594661;23;20043;-55
2023/07/29 18:55:08;;;;;;;8.52;4.57;;;18.30;99.90;;;;;;25594189;23;20064;-54
2023/07/29 19:05:12;;;;;;;8.90;6.05;;;18.40;99.90;;;;;;25593657;23;20013;-56
2023/07/29 19:15:14;;;;;;;9.68;6.05;;;18.30;99.90;;;;;;25567073;23;20057;-55
2023/07/29 19:25:16;;;;;;;7.90;5.60;;;18.10;99.90;;;;;;25593999;23;20005;-56
2023/07/29 19:35:19;;;;;;;6.05;4.82;;;18.00;99.90;;;;;;25592936;23;20005;-57
2023/07/29 19:45:21;;;;;;;8.57;5.38;;;18.00;99.90;;;;;;25593290;23;20001;-53
2023/07/29 19:55:24;;;;;;;9.55;4.93;;;18.00;99.90;;;;;;25593038;23;20001;-55
2023/07/29 20:05:29;;;;;;;8.60;5.10;;;17.70;99.90;;;;;;25592402;23;20086;-55
2023/07/29 20:15:32;;;;;;;8.23;7.03;;;17.90;99.90;;;;;;25565514;23;20005;-56
2023/07/29 20:25:34;;;;;;;9.23;6.57;;;17.90;99.90;;;;;;25565540;23;20032;-55
2023/07/29 20:35:37;;;;;;;8.90;6.03;;;18.00;99.90;;;;;;25591842;23;20013;-54
2023/07/29 20:45:39;;;;;;;7.47;5.50;;;17.90;99.90;;;;;;25590629;23;19997;-55
2023/07/29 20:55:41;;;;;;;7.40;5.70;;;17.90;99.90;;;;;;25590384;23;20009;-55
2023/07/29 21:05:45;;;;;;;8.73;5.90;;;18.00;99.90;;;;;;25590000;23;20332;-55
2023/07/29 21:15:57;;;;;;;9.05;5.78;;;17.80;99.90;;;;;;25589719;23;20009;-55
2023/07/29 21:25:59;;;;;;;12.82;6.22;;;17.60;99.90;;;;;;25627843;23;20008;-53
2023/07/29 21:36:01;;;;;;;8.15;5.82;;;17.40;99.90;;;;;;25590124;23;20020;-55
2023/07/29 21:46:06;;;;;;;8.85;6.80;;;17.20;99.90;;;;;;25588903;23;20020;-52
2023/07/29 21:56:10;;;;;;;10.43;6.97;;;17.20;99.90;;;;;;25588780;23;20025;-55
2023/07/29 22:06:12;;;;;;;9.48;6.22;;;17.40;99.90;;;;;;25560852;23;20008;-52
2023/07/29 22:16:14;;;;;;;13.70;7.88;;;17.60;99.90;;;;;;25588443;23;20055;-57
2023/07/29 22:26:16;;;;;;;12.70;10.40;;;17.60;99.90;;;;;;25588662;23;20508;-56
2023/07/29 22:36:18;;;;;;;12.02;10.73;;;17.70;99.90;;;;;;25588344;23;20344;-56
2023/07/29 22:46:20;;;;;;;14.90;12.57;;;17.80;99.90;;;;;;25588197;23;20028;-57
2023/07/29 22:56:22;;;;;;;19.13;14.18;;;17.70;99.90;;;;;;25588368;23;20005;-56
2023/07/29 23:06:25;;;;;;;20.95;17.23;;;17.80;99.90;;;;;;25561070;23;20005;-54
2023/07/29 23:16:27;;;;;;;11.45;5.25;;;17.70;99.90;;;;;;25594133;23;20008;-51
2023/07/29 23:26:28;;;;;;;10.05;6.60;;;16.00;99.90;;;;;;25595107;23;20009;-50
2023/07/29 23:36:30;;;;;;;9.85;7.65;;;15.20;99.90;;;;;;25594396;23;20017;-54
2023/07/29 23:46:34;;;;;;;9.15;7.00;;;14.80;99.90;;;;;;25593174;23;20337;-54
2023/07/29 23:56:36;;;;;;;13.07;8.38;;;14.70;99.90;;;;;;25593222;23;20481;-51
